sensor_id;sensor_type;location;lat;lon;timestamp;P1;durP1;ratioP1;P2;durP2;ratioP2
27728;SDS011;15126;42.186;24.340;2023-10-31T00:02:20;9.83;;;8.50;;
27728;SDS011;15126;42.186;24.340;2023-10-31T00:04:47;10.30;;;8.67;;
27728;SDS011;15126;42.186;24.340;2023-10-31T00:07:28;11.60;;;8.60;;
27728;SDS011;15126;42.186;24.340;2023-10-31T00:09:55;13.70;;;8.33;;
27728;SDS011;15126;42.186;24.340;2023-10-31T00:12:22;9.27;;;8.17;;
27728;SDS011;15126;42.186;24.340;2023-10-31T00:14:49;13.43;;;8.77;;
27728;SDS011;15126;42.186;24.340;2023-10-31T00:17:16;14.13;;;9.03;;
27728;SDS011;15126;42.186;24.340;2023-10-31T00:19:42;9.33;;;8.53;;
27728;SDS011;15126;42.186;24.340;2023-10-31T00:22:10;14.60;;;8.57;;
27728;SDS011;15126;42.186;24.340;2023-10-31T00:24:39;15.03;;;9.07;;
27728;SDS011;15126;42.186;24.340;2023-10-31T00:27:06;13.43;;;9.33;;
27728;SDS011;15126;42.186;24.340;2023-10-31T00:29:33;10.27;;;9.20;;
27728;SDS011;15126;42.186;24.340;2023-10-31T00:32:00;11.40;;;9.13;;
27728;SDS011;15126;42.186;24.340;2023-10-31T00:34:31;13.27;;;9.77;;
27728;SDS011;15126;42.186;24.340;2023-10-31T00:36:57;13.40;;;9.20;;
27728;SDS011;15126;42.186;24.340;2023-10-31T00:39:24;10.13;;;9.03;;
27728;SDS011;15126;42.186;24.340;2023-10-31T00:41:53;13.33;;;10.07;;
27728;SDS011;15126;42.186;24.340;2023-10-31T00:44:21;11.77;;;10.37;;
27728;SDS011;15126;42.186;24.340;2023-10-31T00:46:50;16.40;;;9.57;;
27728;SDS011;15126;42.186;24.340;2023-10-31T00:49:19;13.50;;;9.70;;
27728;SDS011;15126;42.186;24.340;2023-10-31T00:51:46;12.33;;;10.50;;
27728;SDS011;15126;42.186;24.340;2023-10-31T00:54:13;14.83;;;11.03;;
27728;SDS011;15126;42.186;24.340;2023-10-31T00:56:40;16.00;;;9.77;;
27728;SDS011;15126;42.186;24.340;2023-10-31T00:59:11;17.23;;;11.30;;
27728;SDS011;15126;42.186;24.340;2023-10-31T01:01:38;15.97;;;10.57;;
27728;SDS011;15126;42.186;24.340;2023-10-31T01:04:05;14.10;;;11.50;;
27728;SDS011;15126;42.186;24.340;2023-10-31T01:06:31;18.70;;;11.33;;
27728;SDS011;15126;42.186;24.340;2023-10-31T01:09:01;12.57;;;10.97;;
27728;SDS011;15126;42.186;24.340;2023-10-31T01:11:28;13.63;;;11.87;;
27728;SDS011;15126;42.186;24.340;2023-10-31T01:13:55;14.27;;;10.87;;
27728;SDS011;15126;42.186;24.340;2023-10-31T01:16:23;16.50;;;11.67;;
27728;SDS011;15126;42.186;24.340;2023-10-31T01:18:50;15.90;;;11.63;;
27728;SDS011;15126;42.186;24.340;2023-10-31T01:21:17;14.07;;;11.80;;
27728;SDS011;15126;42.186;24.340;2023-10-31T01:23:44;15.30;;;11.77;;
27728;SDS011;15126;42.186;24.340;2023-10-31T01:26:11;15.50;;;10.73;;
27728;SDS011;15126;42.186;24.340;2023-10-31T01:28:38;17.43;;;11.37;;
27728;SDS011;15126;42.186;24.340;2023-10-31T01:31:05;14.13;;;11.30;;
27728;SDS011;15126;42.186;24.340;2023-10-31T01:33:35;15.03;;;11.90;;
27728;SDS011;15126;42.186;24.340;2023-10-31T01:36:02;15.33;;;10.80;;
27728;SDS011;15126;42.186;24.340;2023-10-31T01:38:30;13.13;;;11.53;;
27728;SDS011;15126;42.186;24.340;2023-10-31T01:40:56;15.90;;;11.63;;
27728;SDS011;15126;42.186;24.340;2023-10-31T01:43:30;14.10;;;11.10;;
27728;SDS011;15126;42.186;24.340;2023-10-31T01:45:58;16.60;;;12.20;;
27728;SDS011;15126;42.186;24.340;2023-10-31T01:48:25;13.20;;;11.80;;
27728;SDS011;15126;42.186;24.340;2023-10-31T01:50:59;14.77;;;10.97;;
27728;SDS011;15126;42.186;24.340;2023-10-31T01:53:29;13.60;;;10.97;;
27728;SDS011;15126;42.186;24.340;2023-10-31T01:55:58;14.47;;;11.73;;
27728;SDS011;15126;42.186;24.340;2023-10-31T01:58:28;13.73;;;11.87;;
27728;SDS011;15126;42.186;24.340;2023-10-31T02:00:57;12.80;;;11.33;;
27728;SDS011;15126;42.186;24.340;2023-10-31T02:03:25;16.20;;;12.73;;
27728;SDS011;15126;42.186;24.340;2023-10-31T02:05:52;12.40;;;10.93;;
27728;SDS011;15126;42.186;24.340;2023-10-31T02:08:24;12.47;;;10.33;;
27728;SDS011;15126;42.186;24.340;2023-10-31T02:10:51;17.70;;;11.27;;
27728;SDS011;15126;42.186;24.340;2023-10-31T02:13:18;17.57;;;11.93;;
27728;SDS011;15126;42.186;24.340;2023-10-31T02:15:45;15.17;;;11.00;;
27728;SDS011;15126;42.186;24.340;2023-10-31T02:18:13;13.50;;;11.37;;
27728;SDS011;15126;42.186;24.340;2023-10-31T02:20:40;17.73;;;10.43;;
27728;SDS011;15126;42.186;24.340;2023-10-31T02:23:10;15.93;;;11.30;;
27728;SDS011;15126;42.186;24.340;2023-10-31T02:25:37;16.00;;;10.33;;
27728;SDS011;15126;42.186;24.340;2023-10-31T02:28:04;16.43;;;11.10;;
27728;SDS011;15126;42.186;24.340;2023-10-31T02:30:31;14.37;;;10.87;;
27728;SDS011;15126;42.186;24.340;2023-10-31T02:33:00;13.97;;;11.23;;
27728;SDS011;15126;42.186;24.340;2023-10-31T02:35:27;11.37;;;10.03;;
27728;SDS011;15126;42.186;24.340;2023-10-31T02:37:54;12.97;;;9.70;;
27728;SDS011;15126;42.186;24.340;2023-10-31T02:40:23;14.23;;;10.60;;
27728;SDS011;15126;42.186;24.340;2023-10-31T02:42:50;16.50;;;11.10;;
27728;SDS011;15126;42.186;24.340;2023-10-31T02:45:17;16.27;;;9.90;;
27728;SDS011;15126;42.186;24.340;2023-10-31T02:47:46;17.87;;;10.47;;
27728;SDS011;15126;42.186;24.340;2023-10-31T02:50:13;14.93;;;11.10;;
27728;SDS011;15126;42.186;24.340;2023-10-31T02:52:40;14.30;;;11.20;;
27728;SDS011;15126;42.186;24.340;2023-10-31T02:55:07;14.70;;;11.27;;
27728;SDS011;15126;42.186;24.340;2023-10-31T02:57:36;14.57;;;10.57;;
27728;SDS011;15126;42.186;24.340;2023-10-31T03:00:04;11.57;;;10.50;;
27728;SDS011;15126;42.186;24.340;2023-10-31T03:02:31;14.17;;;9.93;;
27728;SDS011;15126;42.186;24.340;2023-10-31T03:04:58;15.23;;;10.83;;
27728;SDS011;15126;42.186;24.340;2023-10-31T03:07:25;10.63;;;9.37;;
27728;SDS011;15126;42.186;24.340;2023-10-31T03:09:52;14.17;;;10.00;;
27728;SDS011;15126;42.186;24.340;2023-10-31T03:12:22;13.77;;;9.90;;
27728;SDS011;15126;42.186;24.340;2023-10-31T03:14:50;11.97;;;9.53;;
27728;SDS011;15126;42.186;24.340;2023-10-31T03:17:18;14.37;;;10.43;;
27728;SDS011;15126;42.186;24.340;2023-10-31T03:19:46;15.47;;;10.03;;
27728;SDS011;15126;42.186;24.340;2023-10-31T03:22:13;13.37;;;11.23;;
27728;SDS011;15126;42.186;24.340;2023-10-31T03:24:40;14.07;;;10.23;;
27728;SDS011;15126;42.186;24.340;2023-10-31T03:27:07;15.63;;;11.27;;
27728;SDS011;15126;42.186;24.340;2023-10-31T03:29:34;13.23;;;9.63;;
27728;SDS011;15126;42.186;24.340;2023-10-31T03:32:04;15.47;;;9.20;;
27728;SDS011;15126;42.186;24.340;2023-10-31T03:34:32;11.70;;;9.73;;
27728;SDS011;15126;42.186;24.340;2023-10-31T03:36:59;13.57;;;10.17;;
27728;SDS011;15126;42.186;24.340;2023-10-31T03:39:25;11.97;;;10.63;;
27728;SDS011;15126;42.186;24.340;2023-10-31T03:41:52;13.37;;;10.03;;
27728;SDS011;15126;42.186;24.340;2023-10-31T03:44:19;12.30;;;10.50;;
27728;SDS011;15126;42.186;24.340;2023-10-31T03:46:46;12.23;;;10.33;;
27728;SDS011;15126;42.186;24.340;2023-10-31T03:49:15;13.27;;;10.63;;
27728;SDS011;15126;42.186;24.340;2023-10-31T03:51:42;11.97;;;10.77;;
27728;SDS011;15126;42.186;24.340;2023-10-31T03:54:10;15.40;;;11.07;;
27728;SDS011;15126;42.186;24.340;2023-10-31T03:56:40;13.30;;;11.10;;
27728;SDS011;15126;42.186;24.340;2023-10-31T03:59:09;13.23;;;10.63;;
27728;SDS011;15126;42.186;24.340;2023-10-31T04:01:39;11.87;;;10.13;;
27728;SDS011;15126;42.186;24.340;2023-10-31T04:04:05;11.90;;;10.80;;
27728;SDS011;15126;42.186;24.340;2023-10-31T04:06:36;14.87;;;13.27;;
27728;SDS011;15126;42.186;24.340;2023-10-31T04:09:06;20.50;;;16.77;;
27728;SDS011;15126;42.186;24.340;2023-10-31T04:11:33;23.77;;;18.03;;
27728;SDS011;15126;42.186;24.340;2023-10-31T04:14:02;21.20;;;17.80;;
27728;SDS011;15126;42.186;24.340;2023-10-31T04:16:31;22.53;;;16.07;;
27728;SDS011;15126;42.186;24.340;2023-10-31T04:18:59;22.57;;;16.67;;
27728;SDS011;15126;42.186;24.340;2023-10-31T04:21:25;19.67;;;15.20;;
27728;SDS011;15126;42.186;24.340;2023-10-31T04:23:54;21.43;;;13.00;;
27728;SDS011;15126;42.186;24.340;2023-10-31T04:26:25;16.83;;;13.53;;
27728;SDS011;15126;42.186;24.340;2023-10-31T04:28:52;13.80;;;11.53;;
27728;SDS011;15126;42.186;24.340;2023-10-31T04:31:19;19.53;;;13.40;;
27728;SDS011;15126;42.186;24.340;2023-10-31T04:33:47;17.13;;;12.43;;
27728;SDS011;15126;42.186;24.340;2023-10-31T04:36:14;18.10;;;13.30;;
27728;SDS011;15126;42.186;24.340;2023-10-31T04:38:48;13.97;;;12.50;;
27728;SDS011;15126;42.186;24.340;2023-10-31T04:41:17;15.47;;;10.97;;
27728;SDS011;15126;42.186;24.340;2023-10-31T04:43:50;13.53;;;11.27;;
27728;SDS011;15126;42.186;24.340;2023-10-31T04:46:20;13.47;;;9.37;;
27728;SDS011;15126;42.186;24.340;2023-10-31T04:48:49;13.67;;;10.07;;
27728;SDS011;15126;42.186;24.340;2023-10-31T04:51:20;14.80;;;10.27;;
27728;SDS011;15126;42.186;24.340;2023-10-31T04:53:48;14.77;;;11.87;;
27728;SDS011;15126;42.186;24.340;2023-10-31T04:56:19;14.67;;;12.07;;
27728;SDS011;15126;42.186;24.340;2023-10-31T04:58:46;15.10;;;11.07;;
27728;SDS011;15126;42.186;24.340;2023-10-31T05:01:27;12.17;;;10.90;;
27728;SDS011;15126;42.186;24.340;2023-10-31T05:03:57;14.57;;;12.20;;
27728;SDS011;15126;42.186;24.340;2023-10-31T05:06:26;19.57;;;12.63;;
27728;SDS011;15126;42.186;24.340;2023-10-31T05:08:55;16.23;;;11.87;;
27728;SDS011;15126;42.186;24.340;2023-10-31T05:11:40;16.47;;;11.87;;
27728;SDS011;15126;42.186;24.340;2023-10-31T05:14:13;22.80;;;12.50;;
27728;SDS011;15126;42.186;24.340;2023-10-31T05:16:43;17.47;;;13.23;;
27728;SDS011;15126;42.186;24.340;2023-10-31T05:19:17;14.63;;;12.13;;
27728;SDS011;15126;42.186;24.340;2023-10-31T05:21:50;16.13;;;13.03;;
27728;SDS011;15126;42.186;24.340;2023-10-31T05:24:25;17.57;;;12.67;;
27728;SDS011;15126;42.186;24.340;2023-10-31T05:26:55;18.47;;;13.00;;
27728;SDS011;15126;42.186;24.340;2023-10-31T05:29:42;16.00;;;12.83;;
27728;SDS011;15126;42.186;24.340;2023-10-31T05:32:20;15.93;;;12.97;;
27728;SDS011;15126;42.186;24.340;2023-10-31T05:34:56;17.67;;;13.20;;
27728;SDS011;15126;42.186;24.340;2023-10-31T05:37:23;17.10;;;13.03;;
27728;SDS011;15126;42.186;24.340;2023-10-31T05:39:54;18.03;;;12.37;;
27728;SDS011;15126;42.186;24.340;2023-10-31T05:42:45;19.83;;;14.53;;
27728;SDS011;15126;42.186;24.340;2023-10-31T05:45:13;16.60;;;12.90;;
27728;SDS011;15126;42.186;24.340;2023-10-31T05:47:59;24.03;;;13.77;;
27728;SDS011;15126;42.186;24.340;2023-10-31T05:50:26;16.97;;;13.20;;
27728;SDS011;15126;42.186;24.340;2023-10-31T05:52:56;16.67;;;12.80;;
27728;SDS011;15126;42.186;24.340;2023-10-31T05:55:23;17.40;;;13.30;;
27728;SDS011;15126;42.186;24.340;2023-10-31T05:58:03;20.10;;;11.97;;
27728;SDS011;15126;42.186;24.340;2023-10-31T06:00:29;18.77;;;12.97;;
27728;SDS011;15126;42.186;24.340;2023-10-31T06:02:56;18.97;;;13.50;;
27728;SDS011;15126;42.186;24.340;2023-10-31T06:05:24;15.93;;;12.97;;
27728;SDS011;15126;42.186;24.340;2023-10-31T06:07:52;17.67;;;14.07;;
27728;SDS011;15126;42.186;24.340;2023-10-31T06:10:25;19.60;;;12.67;;
27728;SDS011;15126;42.186;24.340;2023-10-31T06:12:51;15.47;;;12.23;;
27728;SDS011;15126;42.186;24.340;2023-10-31T06:15:20;13.73;;;11.60;;
27728;SDS011;15126;42.186;24.340;2023-10-31T06:17:48;15.63;;;13.43;;
27728;SDS011;15126;42.186;24.340;2023-10-31T06:20:15;19.23;;;11.80;;
27728;SDS011;15126;42.186;24.340;2023-10-31T06:22:42;18.10;;;11.97;;
27728;SDS011;15126;42.186;24.340;2023-10-31T06:25:09;27.50;;;13.77;;
27728;SDS011;15126;42.186;24.340;2023-10-31T06:27:36;17.27;;;13.13;;
27728;SDS011;15126;42.186;24.340;2023-10-31T06:30:04;19.07;;;14.03;;
27728;SDS011;15126;42.186;24.340;2023-10-31T06:32:33;15.17;;;11.27;;
27728;SDS011;15126;42.186;24.340;2023-10-31T06:35:00;26.80;;;11.53;;
27728;SDS011;15126;42.186;24.340;2023-10-31T06:37:28;23.27;;;12.90;;
27728;SDS011;15126;42.186;24.340;2023-10-31T06:39:55;19.97;;;12.67;;
27728;SDS011;15126;42.186;24.340;2023-10-31T06:42:22;18.20;;;11.90;;
27728;SDS011;15126;42.186;24.340;2023-10-31T06:44:49;13.97;;;11.40;;
27728;SDS011;15126;42.186;24.340;2023-10-31T06:47:16;19.90;;;12.20;;
27728;SDS011;15126;42.186;24.340;2023-10-31T06:49:45;14.97;;;11.33;;
27728;SDS011;15126;42.186;24.340;2023-10-31T06:52:12;13.93;;;11.37;;
27728;SDS011;15126;42.186;24.340;2023-10-31T06:54:38;16.73;;;10.47;;
27728;SDS011;15126;42.186;24.340;2023-10-31T06:57:05;13.93;;;11.60;;
27728;SDS011;15126;42.186;24.340;2023-10-31T06:59:32;12.57;;;10.23;;
27728;SDS011;15126;42.186;24.340;2023-10-31T07:02:02;18.63;;;11.77;;
27728;SDS011;15126;42.186;24.340;2023-10-31T07:04:28;17.77;;;11.20;;
27728;SDS011;15126;42.186;24.340;2023-10-31T07:06:57;13.97;;;10.73;;
27728;SDS011;15126;42.186;24.340;2023-10-31T07:09:24;14.87;;;10.30;;
27728;SDS011;15126;42.186;24.340;2023-10-31T07:11:52;13.13;;;10.57;;
27728;SDS011;15126;42.186;24.340;2023-10-31T07:14:19;16.43;;;11.00;;
27728;SDS011;15126;42.186;24.340;2023-10-31T07:16:47;18.93;;;10.73;;
27728;SDS011;15126;42.186;24.340;2023-10-31T07:19:15;14.40;;;9.57;;
27728;SDS011;15126;42.186;24.340;2023-10-31T07:21:42;13.60;;;9.87;;
27728;SDS011;15126;42.186;24.340;2023-10-31T07:24:11;11.63;;;9.87;;
27728;SDS011;15126;42.186;24.340;2023-10-31T07:26:38;20.17;;;11.03;;
27728;SDS011;15126;42.186;24.340;2023-10-31T07:29:06;15.67;;;9.83;;
27728;SDS011;15126;42.186;24.340;2023-10-31T07:31:34;19.53;;;10.40;;
27728;SDS011;15126;42.186;24.340;2023-10-31T07:34:03;13.07;;;9.47;;
27728;SDS011;15126;42.186;24.340;2023-10-31T07:36:30;14.77;;;10.90;;
27728;SDS011;15126;42.186;24.340;2023-10-31T07:39:00;14.60;;;9.93;;
27728;SDS011;15126;42.186;24.340;2023-10-31T07:41:29;12.60;;;10.10;;
27728;SDS011;15126;42.186;24.340;2023-10-31T07:43:56;10.00;;;9.00;;
27728;SDS011;15126;42.186;24.340;2023-10-31T07:46:23;18.63;;;10.43;;
27728;SDS011;15126;42.186;24.340;2023-10-31T07:48:50;16.87;;;10.30;;
27728;SDS011;15126;42.186;24.340;2023-10-31T07:51:20;16.10;;;10.50;;
27728;SDS011;15126;42.186;24.340;2023-10-31T07:53:49;16.67;;;10.67;;
27728;SDS011;15126;42.186;24.340;2023-10-31T07:56:16;15.73;;;10.37;;
27728;SDS011;15126;42.186;24.340;2023-10-31T07:58:49;15.80;;;9.63;;
27728;SDS011;15126;42.186;24.340;2023-10-31T08:01:16;16.00;;;10.03;;
27728;SDS011;15126;42.186;24.340;2023-10-31T08:03:43;12.93;;;10.00;;
27728;SDS011;15126;42.186;24.340;2023-10-31T08:06:11;11.77;;;10.30;;
27728;SDS011;15126;42.186;24.340;2023-10-31T08:08:38;12.17;;;9.63;;
27728;SDS011;15126;42.186;24.340;2023-10-31T08:11:07;12.80;;;10.43;;
27728;SDS011;15126;42.186;24.340;2023-10-31T08:13:34;22.27;;;12.93;;
27728;SDS011;15126;42.186;24.340;2023-10-31T08:16:05;21.57;;;13.27;;
27728;SDS011;15126;42.186;24.340;2023-10-31T08:18:33;28.30;;;16.50;;
27728;SDS011;15126;42.186;24.340;2023-10-31T08:21:01;15.63;;;11.57;;
27728;SDS011;15126;42.186;24.340;2023-10-31T08:23:31;12.10;;;9.17;;
27728;SDS011;15126;42.186;24.340;2023-10-31T08:25:58;17.60;;;9.80;;
27728;SDS011;15126;42.186;24.340;2023-10-31T08:28:30;13.27;;;7.67;;
27728;SDS011;15126;42.186;24.340;2023-10-31T08:30:57;11.30;;;7.90;;
27728;SDS011;15126;42.186;24.340;2023-10-31T08:33:28;12.77;;;9.53;;
27728;SDS011;15126;42.186;24.340;2023-10-31T08:35:55;10.20;;;8.33;;
27728;SDS011;15126;42.186;24.340;2023-10-31T08:38:22;12.33;;;10.17;;
27728;SDS011;15126;42.186;24.340;2023-10-31T08:40:49;18.73;;;10.33;;
27728;SDS011;15126;42.186;24.340;2023-10-31T08:43:16;13.10;;;9.43;;
27728;SDS011;15126;42.186;24.340;2023-10-31T08:45:46;9.70;;;7.90;;
27728;SDS011;15126;42.186;24.340;2023-10-31T08:48:13;15.47;;;9.17;;
27728;SDS011;15126;42.186;24.340;2023-10-31T08:50:45;16.33;;;9.30;;
27728;SDS011;15126;42.186;24.340;2023-10-31T08:53:13;12.17;;;8.53;;
27728;SDS011;15126;42.186;24.340;2023-10-31T08:55:43;14.53;;;9.70;;
27728;SDS011;15126;42.186;24.340;2023-10-31T08:58:11;20.37;;;10.00;;
27728;SDS011;15126;42.186;24.340;2023-10-31T09:00:39;16.27;;;8.90;;
27728;SDS011;15126;42.186;24.340;2023-10-31T09:03:06;20.27;;;10.33;;
27728;SDS011;15126;42.186;24.340;2023-10-31T09:05:33;18.47;;;9.80;;
27728;SDS011;15126;42.186;24.340;2023-10-31T09:08:01;14.97;;;9.80;;
27728;SDS011;15126;42.186;24.340;2023-10-31T09:10:31;14.83;;;9.17;;
27728;SDS011;15126;42.186;24.340;2023-10-31T09:13:00;16.47;;;9.53;;
27728;SDS011;15126;42.186;24.340;2023-10-31T09:15:27;13.40;;;8.93;;
27728;SDS011;15126;42.186;24.340;2023-10-31T09:17:56;15.10;;;10.30;;
27728;SDS011;15126;42.186;24.340;2023-10-31T09:20:27;13.97;;;9.23;;
27728;SDS011;15126;42.186;24.340;2023-10-31T09:22:55;16.23;;;10.50;;
27728;SDS011;15126;42.186;24.340;2023-10-31T09:25:23;18.63;;;8.80;;
27728;SDS011;15126;42.186;24.340;2023-10-31T09:27:52;19.47;;;8.27;;
27728;SDS011;15126;42.186;24.340;2023-10-31T09:30:19;10.23;;;7.80;;
27728;SDS011;15126;42.186;24.340;2023-10-31T09:32:46;13.30;;;7.27;;
27728;SDS011;15126;42.186;24.340;2023-10-31T09:35:13;13.37;;;7.43;;
27728;SDS011;15126;42.186;24.340;2023-10-31T09:37:40;11.43;;;7.10;;
27728;SDS011;15126;42.186;24.340;2023-10-31T09:40:08;11.30;;;7.20;;
27728;SDS011;15126;42.186;24.340;2023-10-31T09:42:37;11.37;;;7.70;;
27728;SDS011;15126;42.186;24.340;2023-10-31T09:45:05;11.40;;;7.07;;
27728;SDS011;15126;42.186;24.340;2023-10-31T09:47:32;13.20;;;8.00;;
27728;SDS011;15126;42.186;24.340;2023-10-31T09:49:59;17.77;;;9.33;;
27728;SDS011;15126;42.186;24.340;2023-10-31T09:52:26;12.80;;;8.47;;
27728;SDS011;15126;42.186;24.340;2023-10-31T09:54:53;8.37;;;7.57;;
27728;SDS011;15126;42.186;24.340;2023-10-31T09:57:22;12.83;;;9.23;;
27728;SDS011;15126;42.186;24.340;2023-10-31T09:59:53;16.50;;;8.00;;
27728;SDS011;15126;42.186;24.340;2023-10-31T10:02:20;14.87;;;7.83;;
27728;SDS011;15126;42.186;24.340;2023-10-31T10:04:47;13.77;;;8.73;;
27728;SDS011;15126;42.186;24.340;2023-10-31T10:07:16;12.70;;;7.70;;
27728;SDS011;15126;42.186;24.340;2023-10-31T10:09:45;15.20;;;8.20;;
27728;SDS011;15126;42.186;24.340;2023-10-31T10:12:12;15.07;;;9.10;;
27728;SDS011;15126;42.186;24.340;2023-10-31T10:14:40;12.17;;;8.57;;
27728;SDS011;15126;42.186;24.340;2023-10-31T10:17:15;16.57;;;9.37;;
27728;SDS011;15126;42.186;24.340;2023-10-31T10:19:42;14.33;;;8.60;;
27728;SDS011;15126;42.186;24.340;2023-10-31T10:22:10;13.93;;;7.73;;
27728;SDS011;15126;42.186;24.340;2023-10-31T10:24:39;15.80;;;7.83;;
27728;SDS011;15126;42.186;24.340;2023-10-31T10:27:06;11.70;;;8.27;;
27728;SDS011;15126;42.186;24.340;2023-10-31T10:29:34;17.07;;;9.67;;
27728;SDS011;15126;42.186;24.340;2023-10-31T10:32:04;16.47;;;9.83;;
27728;SDS011;15126;42.186;24.340;2023-10-31T10:34:35;13.40;;;9.70;;
27728;SDS011;15126;42.186;24.340;2023-10-31T10:37:05;17.43;;;9.73;;
27728;SDS011;15126;42.186;24.340;2023-10-31T10:39:33;12.67;;;9.43;;
27728;SDS011;15126;42.186;24.340;2023-10-31T10:42:01;14.00;;;9.27;;
27728;SDS011;15126;42.186;24.340;2023-10-31T10:44:35;14.27;;;9.23;;
27728;SDS011;15126;42.186;24.340;2023-10-31T10:47:04;11.87;;;8.00;;
27728;SDS011;15126;42.186;24.340;2023-10-31T10:49:32;20.23;;;8.10;;
27728;SDS011;15126;42.186;24.340;2023-10-31T10:52:04;13.37;;;8.63;;
27728;SDS011;15126;42.186;24.340;2023-10-31T10:54:41;15.63;;;9.27;;
27728;SDS011;15126;42.186;24.340;2023-10-31T10:57:13;12.97;;;8.40;;
27728;SDS011;15126;42.186;24.340;2023-10-31T10:59:41;11.40;;;8.57;;
27728;SDS011;15126;42.186;24.340;2023-10-31T11:02:10;17.83;;;8.23;;
27728;SDS011;15126;42.186;24.340;2023-10-31T11:04:39;20.70;;;9.17;;
27728;SDS011;15126;42.186;24.340;2023-10-31T11:07:10;13.37;;;7.87;;
27728;SDS011;15126;42.186;24.340;2023-10-31T11:09:37;15.83;;;7.00;;
27728;SDS011;15126;42.186;24.340;2023-10-31T11:12:06;10.47;;;6.60;;
27728;SDS011;15126;42.186;24.340;2023-10-31T11:14:35;16.53;;;6.97;;
27728;SDS011;15126;42.186;24.340;2023-10-31T11:17:05;7.40;;;5.87;;
27728;SDS011;15126;42.186;24.340;2023-10-31T11:19:37;9.27;;;5.80;;
27728;SDS011;15126;42.186;24.340;2023-10-31T11:22:05;10.23;;;7.03;;
27728;SDS011;15126;42.186;24.340;2023-10-31T11:24:34;10.43;;;7.10;;
27728;SDS011;15126;42.186;24.340;2023-10-31T11:27:06;11.20;;;7.20;;
27728;SDS011;15126;42.186;24.340;2023-10-31T11:29:35;14.53;;;6.30;;
27728;SDS011;15126;42.186;24.340;2023-10-31T11:32:03;10.47;;;6.47;;
27728;SDS011;15126;42.186;24.340;2023-10-31T11:34:43;8.40;;;5.87;;
27728;SDS011;15126;42.186;24.340;2023-10-31T11:40:16;10.43;;;5.40;;
27728;SDS011;15126;42.186;24.340;2023-10-31T11:42:48;8.27;;;5.63;;
27728;SDS011;15126;42.186;24.340;2023-10-31T11:45:28;11.40;;;5.53;;
27728;SDS011;15126;42.186;24.340;2023-10-31T11:47:56;11.97;;;5.60;;
27728;SDS011;15126;42.186;24.340;2023-10-31T11:50:24;10.30;;;5.87;;
27728;SDS011;15126;42.186;24.340;2023-10-31T11:53:01;13.07;;;6.67;;
27728;SDS011;15126;42.186;24.340;2023-10-31T11:55:35;14.57;;;5.30;;
27728;SDS011;15126;42.186;24.340;2023-10-31T11:58:13;9.93;;;5.07;;
27728;SDS011;15126;42.186;24.340;2023-10-31T12:00:40;9.80;;;5.17;;
27728;SDS011;15126;42.186;24.340;2023-10-31T12:03:07;6.70;;;5.43;;
27728;SDS011;15126;42.186;24.340;2023-10-31T12:05:34;13.30;;;6.17;;
27728;SDS011;15126;42.186;24.340;2023-10-31T12:08:01;10.33;;;6.07;;
27728;SDS011;15126;42.186;24.340;2023-10-31T12:10:31;9.93;;;6.03;;
27728;SDS011;15126;42.186;24.340;2023-10-31T12:12:59;11.23;;;5.67;;
27728;SDS011;15126;42.186;24.340;2023-10-31T12:15:29;14.67;;;5.70;;
27728;SDS011;15126;42.186;24.340;2023-10-31T12:17:59;8.07;;;5.03;;
27728;SDS011;15126;42.186;24.340;2023-10-31T12:20:29;12.93;;;5.40;;
27728;SDS011;15126;42.186;24.340;2023-10-31T12:23:01;10.87;;;6.57;;
27728;SDS011;15126;42.186;24.340;2023-10-31T12:25:33;17.20;;;5.97;;
27728;SDS011;15126;42.186;24.340;2023-10-31T12:30:55;10.07;;;5.90;;
27728;SDS011;15126;42.186;24.340;2023-10-31T12:33:25;15.27;;;5.83;;
27728;SDS011;15126;42.186;24.340;2023-10-31T12:35:55;13.10;;;5.50;;
27728;SDS011;15126;42.186;24.340;2023-10-31T12:38:23;7.97;;;5.60;;
27728;SDS011;15126;42.186;24.340;2023-10-31T12:40:51;13.07;;;5.47;;
27728;SDS011;15126;42.186;24.340;2023-10-31T12:43:22;13.20;;;5.30;;
27728;SDS011;15126;42.186;24.340;2023-10-31T12:45:51;7.73;;;5.00;;
27728;SDS011;15126;42.186;24.340;2023-10-31T12:48:23;8.70;;;5.93;;
27728;SDS011;15126;42.186;24.340;2023-10-31T12:50:50;9.83;;;5.23;;
27728;SDS011;15126;42.186;24.340;2023-10-31T12:53:35;12.00;;;4.70;;
27728;SDS011;15126;42.186;24.340;2023-10-31T12:56:02;10.37;;;6.00;;
27728;SDS011;15126;42.186;24.340;2023-10-31T12:58:30;10.60;;;5.70;;
27728;SDS011;15126;42.186;24.340;2023-10-31T13:01:06;10.90;;;5.77;;
27728;SDS011;15126;42.186;24.340;2023-10-31T13:03:48;11.13;;;5.80;;
27728;SDS011;15126;42.186;24.340;2023-10-31T13:06:15;10.63;;;6.10;;
27728;SDS011;15126;42.186;24.340;2023-10-31T13:08:44;13.73;;;7.50;;
27728;SDS011;15126;42.186;24.340;2023-10-31T13:11:15;15.37;;;7.83;;
27728;SDS011;15126;42.186;24.340;2023-10-31T13:13:42;12.60;;;7.73;;
27728;SDS011;15126;42.186;24.340;2023-10-31T13:16:10;14.37;;;8.63;;
27728;SDS011;15126;42.186;24.340;2023-10-31T13:18:39;15.83;;;8.07;;
27728;SDS011;15126;42.186;24.340;2023-10-31T13:21:05;13.60;;;9.60;;
27728;SDS011;15126;42.186;24.340;2023-10-31T13:23:33;19.67;;;10.13;;
27728;SDS011;15126;42.186;24.340;2023-10-31T13:26:03;18.60;;;11.13;;
27728;SDS011;15126;42.186;24.340;2023-10-31T13:28:30;24.53;;;12.17;;
27728;SDS011;15126;42.186;24.340;2023-10-31T13:30:57;17.53;;;13.17;;
27728;SDS011;15126;42.186;24.340;2023-10-31T13:33:26;24.47;;;15.30;;
27728;SDS011;15126;42.186;24.340;2023-10-31T13:35:53;27.97;;;20.77;;
27728;SDS011;15126;42.186;24.340;2023-10-31T13:38:21;24.73;;;20.63;;
27728;SDS011;15126;42.186;24.340;2023-10-31T13:40:51;30.23;;;23.07;;
27728;SDS011;15126;42.186;24.340;2023-10-31T13:43:17;36.37;;;22.00;;
27728;SDS011;15126;42.186;24.340;2023-10-31T13:45:44;36.50;;;24.67;;
27728;SDS011;15126;42.186;24.340;2023-10-31T13:48:11;32.73;;;21.70;;
27728;SDS011;15126;42.186;24.340;2023-10-31T13:50:43;30.47;;;20.60;;
27728;SDS011;15126;42.186;24.340;2023-10-31T13:53:09;33.50;;;18.27;;
27728;SDS011;15126;42.186;24.340;2023-10-31T13:55:37;16.03;;;11.83;;
27728;SDS011;15126;42.186;24.340;2023-10-31T13:58:04;22.57;;;12.00;;
27728;SDS011;15126;42.186;24.340;2023-10-31T14:00:30;25.23;;;10.70;;
27728;SDS011;15126;42.186;24.340;2023-10-31T14:03:00;15.57;;;10.60;;
27728;SDS011;15126;42.186;24.340;2023-10-31T14:05:27;16.90;;;9.97;;
27728;SDS011;15126;42.186;24.340;2023-10-31T14:07:55;20.53;;;10.27;;
27728;SDS011;15126;42.186;24.340;2023-10-31T14:10:22;19.97;;;11.17;;
27728;SDS011;15126;42.186;24.340;2023-10-31T14:12:50;26.77;;;10.87;;
27728;SDS011;15126;42.186;24.340;2023-10-31T14:15:20;15.87;;;9.40;;
27728;SDS011;15126;42.186;24.340;2023-10-31T14:17:50;24.90;;;10.57;;
27728;SDS011;15126;42.186;24.340;2023-10-31T14:20:18;14.80;;;10.27;;
27728;SDS011;15126;42.186;24.340;2023-10-31T14:22:48;21.87;;;10.50;;
27728;SDS011;15126;42.186;24.340;2023-10-31T14:25:19;18.70;;;11.57;;
27728;SDS011;15126;42.186;24.340;2023-10-31T14:27:46;15.47;;;10.07;;
27728;SDS011;15126;42.186;24.340;2023-10-31T14:30:13;17.43;;;10.57;;
27728;SDS011;15126;42.186;24.340;2023-10-31T14:32:42;20.20;;;11.33;;